createdAt,value
2018-09-02T00:01:15.104Z,15.40
2018-09-02T00:03:43.145Z,15.40
2018-09-02T00:06:11.183Z,15.40
2018-09-02T00:08:39.228Z,15.40
2018-09-02T00:11:07.267Z,15.40
2018-09-02T00:13:35.309Z,15.40
2018-09-02T00:16:03.373Z,15.40
2018-09-02T00:18:31.417Z,15.50
2018-09-02T00:20:59.536Z,15.40
2018-09-02T00:23:27.601Z,15.40
2018-09-02T00:25:55.632Z,15.40
2018-09-02T00:28:23.680Z,15.40
2018-09-02T00:30:51.742Z,15.40
2018-09-02T00:33:19.883Z,15.40
2018-09-02T00:35:47.852Z,15.40
2018-09-02T00:38:15.914Z,15.40
2018-09-02T00:40:43.940Z,15.40
2018-09-02T00:43:11.997Z,15.40
2018-09-02T00:45:40.078Z,15.40
2018-09-02T00:48:08.121Z,15.40
2018-09-02T00:50:36.176Z,15.40
2018-09-02T00:53:04.224Z,15.40
2018-09-02T00:55:32.311Z,15.40
2018-09-02T00:58:00.417Z,15.40
2018-09-02T01:00:28.474Z,15.40
2018-09-02T01:02:56.512Z,15.40
2018-09-02T01:05:24.584Z,15.30
2018-09-02T01:07:54.261Z,15.40
2018-09-02T01:10:22.340Z,15.40
2018-09-02T01:12:50.481Z,15.40
2018-09-02T01:15:18.546Z,15.30
2018-09-02T01:17:46.576Z,15.30
2018-09-02T01:20:14.629Z,15.30
2018-09-02T01:22:42.681Z,15.30
2018-09-02T01:25:10.716Z,15.40
2018-09-02T01:27:38.820Z,15.40
2018-09-02T01:30:06.961Z,15.40
2018-09-02T01:32:34.993Z,15.40
2018-09-02T01:35:03.040Z,15.40
2018-09-02T01:37:31.072Z,15.40
2018-09-02T01:39:59.137Z,15.40
2018-09-02T01:42:27.208Z,15.40
2018-09-02T01:44:55.242Z,15.40
2018-09-02T01:47:23.299Z,15.40
2018-09-02T01:49:51.350Z,15.40
2018-09-02T01:52:19.394Z,15.40
2018-09-02T01:54:47.425Z,15.40
2018-09-02T01:57:15.480Z,15.40
2018-09-02T01:59:43.507Z,15.40
2018-09-02T02:02:11.583Z,15.40
2018-09-02T02:04:42.537Z,15.40
2018-09-02T02:07:12.171Z,15.50
2018-09-02T02:09:40.424Z,15.50
2018-09-02T02:12:08.704Z,15.50
2018-09-02T02:14:36.797Z,15.50
2018-09-02T02:17:04.828Z,15.50
2018-09-02T02:19:33.344Z,15.50
2018-09-02T02:22:01.446Z,15.50
2018-09-02T02:24:29.553Z,15.50
2018-09-02T02:26:57.637Z,15.50
2018-09-02T02:29:25.716Z,15.50
2018-09-02T02:31:53.752Z,15.50
2018-09-02T02:34:21.781Z,15.50
2018-09-02T02:36:49.835Z,15.50
2018-09-02T02:39:17.888Z,15.50
2018-09-02T02:41:45.933Z,15.50
2018-09-02T02:44:13.962Z,15.50
2018-09-02T02:46:42.033Z,15.50
2018-09-02T02:49:10.060Z,15.50
2018-09-02T02:51:38.128Z,15.60
2018-09-02T02:54:06.493Z,15.50
2018-09-02T02:56:34.561Z,15.50
2018-09-02T02:59:02.597Z,15.50
2018-09-02T03:01:30.661Z,15.50
2018-09-02T03:03:58.717Z,15.40
2018-09-02T03:06:26.753Z,15.40
2018-09-02T03:08:54.787Z,15.40
2018-09-02T03:11:22.846Z,15.40
2018-09-02T03:13:50.889Z,15.40
2018-09-02T03:16:18.932Z,15.40
2018-09-02T03:18:46.981Z,15.40
2018-09-02T03:21:15.053Z,15.30
2018-09-02T03:23:43.170Z,15.30
2018-09-02T03:26:11.225Z,15.30
2018-09-02T03:28:39.318Z,15.30
2018-09-02T03:31:07.367Z,15.30
2018-09-02T03:33:35.496Z,15.20
2018-09-02T03:36:03.527Z,15.20
2018-09-02T03:38:31.569Z,15.20
2018-09-02T03:40:59.627Z,15.20
2018-09-02T03:43:27.697Z,15.20
2018-09-02T03:45:55.754Z,15.20
2018-09-02T03:48:23.809Z,15.20
2018-09-02T03:50:51.874Z,15.20
2018-09-02T03:53:19.930Z,15.20
2018-09-02T03:55:48.000Z,15.20
2018-09-02T03:58:16.037Z,15.20
2018-09-02T04:00:44.100Z,15.20
2018-09-02T04:03:12.175Z,15.10
2018-09-02T04:05:40.231Z,15.10
2018-09-02T04:08:08.299Z,15.20
2018-09-02T04:10:36.353Z,15.10
2018-09-02T04:13:04.653Z,15.10
2018-09-02T04:15:32.712Z,15.20
2018-09-02T04:18:00.748Z,15.20
2018-09-02T04:20:33.773Z,15.20
2018-09-02T04:23:02.455Z,15.30
2018-09-02T04:25:31.049Z,15.30
2018-09-02T04:27:59.118Z,15.30
2018-09-02T04:30:27.477Z,15.30
2018-09-02T04:32:55.679Z,15.30
2018-09-02T04:35:24.146Z,15.30
2018-09-02T04:37:52.238Z,15.30
2018-09-02T04:40:20.585Z,15.30
2018-09-02T04:42:48.621Z,15.30
2018-09-02T04:45:16.803Z,15.20
2018-09-02T04:47:44.801Z,15.30
2018-09-02T04:50:15.947Z,15.30
2018-09-02T04:52:43.987Z,15.30
2018-09-02T04:55:12.057Z,15.30
2018-09-02T04:57:40.691Z,15.30
2018-09-02T05:00:08.873Z,15.30
2018-09-02T05:02:36.946Z,15.30
2018-09-02T05:05:05.009Z,15.30
2018-09-02T05:07:33.706Z,15.30
2018-09-02T05:10:01.744Z,15.30
2018-09-02T05:12:29.806Z,15.30
2018-09-02T05:14:57.877Z,15.30
2018-09-02T05:17:29.452Z,15.30
2018-09-02T05:19:58.181Z,15.30
2018-09-02T05:22:26.253Z,15.30
2018-09-02T05:24:54.301Z,15.30
2018-09-02T05:27:22.610Z,15.30
2018-09-02T05:29:51.464Z,15.30
2018-09-02T05:32:19.640Z,15.30
2018-09-02T05:34:47.680Z,15.40
2018-09-02T05:37:15.730Z,15.40
2018-09-02T05:39:43.781Z,15.40
2018-09-02T05:42:11.848Z,15.40
2018-09-02T05:44:39.985Z,15.30
2018-09-02T05:47:08.288Z,15.30
2018-09-02T05:49:36.353Z,15.40
2018-09-02T05:52:04.408Z,15.40
2018-09-02T05:54:32.466Z,15.40
2018-09-02T05:57:00.542Z,15.40
2018-09-02T05:59:28.613Z,15.40
2018-09-02T06:01:56.836Z,15.40
2018-09-02T06:04:24.925Z,15.40
2018-09-02T06:06:53.028Z,15.40
2018-09-02T06:09:21.219Z,15.40
2018-09-02T06:11:49.309Z,15.40
2018-09-02T06:14:17.394Z,15.40
2018-09-02T06:16:45.618Z,15.40
2018-09-02T06:19:13.712Z,15.40
2018-09-02T06:21:41.807Z,15.40
2018-09-02T06:24:16.612Z,15.40
2018-09-02T06:26:44.727Z,15.40
2018-09-02T06:29:12.824Z,15.40
2018-09-02T06:31:40.974Z,15.50
2018-09-02T06:34:09.058Z,15.50
2018-09-02T06:36:37.173Z,15.50
2018-09-02T06:39:07.957Z,15.40
2018-09-02T06:41:36.050Z,15.40
2018-09-02T06:44:04.916Z,15.40
2018-09-02T06:46:33.045Z,15.40
2018-09-02T06:49:01.175Z,15.40
2018-09-02T06:51:29.293Z,15.50
2018-09-02T06:53:57.616Z,15.40
2018-09-02T06:56:25.693Z,15.50
2018-09-02T06:58:53.781Z,15.60
2018-09-02T07:01:22.336Z,15.60
2018-09-02T07:03:50.441Z,15.60
2018-09-02T07:06:18.569Z,15.70
2018-09-02T07:08:46.802Z,15.70
2018-09-02T07:11:14.908Z,15.70
2018-09-02T07:13:43.006Z,15.60
2018-09-02T07:16:11.133Z,15.60
2018-09-02T07:18:39.240Z,15.60
2018-09-02T07:21:07.376Z,15.60
2018-09-02T07:23:35.500Z,15.60
2018-09-02T07:26:03.615Z,15.60
2018-09-02T07:28:31.864Z,15.60
2018-09-02T07:30:59.999Z,15.60
2018-09-02T07:33:28.109Z,15.60
2018-09-02T07:35:56.253Z,15.60
2018-09-02T07:38:24.385Z,15.70
2018-09-02T07:40:52.528Z,15.70
2018-09-02T07:43:20.600Z,15.70
2018-09-02T07:45:48.701Z,15.80
2018-09-02T07:48:16.789Z,15.80
2018-09-02T07:50:44.889Z,15.70
2018-09-02T07:53:12.985Z,15.80
2018-09-02T07:55:41.093Z,15.70
2018-09-02T07:58:09.208Z,15.70
2018-09-02T08:00:37.281Z,15.70
2018-09-02T08:03:05.567Z,15.70
2018-09-02T08:05:33.691Z,15.70
2018-09-02T08:08:02.107Z,15.70
2018-09-02T08:10:30.272Z,15.60
2018-09-02T08:12:58.505Z,15.70
2018-09-02T08:15:26.516Z,15.70
2018-09-02T08:17:54.653Z,15.70
2018-09-02T08:20:22.735Z,15.70
2018-09-02T08:22:50.865Z,15.80
2018-09-02T08:25:18.960Z,15.90
2018-09-02T08:27:48.032Z,15.90
2018-09-02T08:30:16.148Z,15.90
2018-09-02T08:32:44.242Z,15.90
2018-09-02T08:35:12.389Z,15.90
2018-09-02T08:37:40.484Z,15.90
2018-09-02T08:40:08.621Z,15.90
2018-09-02T08:42:36.726Z,15.90
2018-09-02T08:45:05.793Z,16.00
2018-09-02T08:47:33.891Z,16.00
2018-09-02T08:50:01.941Z,16.00
2018-09-02T08:52:30.034Z,16.00
2018-09-02T08:54:58.180Z,16.00
2018-09-02T08:57:26.280Z,16.00
2018-09-02T08:59:54.380Z,16.10
2018-09-02T09:02:22.485Z,16.10
2018-09-02T09:04:50.595Z,16.10
2018-09-02T09:07:18.821Z,16.20
2018-09-02T09:09:46.925Z,16.20
2018-09-02T09:12:15.022Z,16.30
2018-09-02T09:14:43.116Z,16.40
2018-09-02T09:17:11.333Z,16.50
2018-09-02T09:19:39.406Z,16.50
2018-09-02T09:22:07.540Z,16.50
2018-09-02T09:24:35.650Z,16.50
2018-09-02T09:27:03.933Z,16.50
2018-09-02T09:29:32.094Z,16.50
2018-09-02T09:32:00.197Z,16.50
2018-09-02T09:34:28.297Z,16.50
2018-09-02T09:36:56.443Z,16.50
2018-09-02T09:39:24.594Z,16.50
2018-09-02T09:41:52.701Z,16.40
2018-09-02T09:44:20.786Z,16.40
2018-09-02T09:46:48.900Z,16.40
2018-09-02T09:49:16.995Z,16.40
2018-09-02T09:51:45.083Z,16.40
2018-09-02T09:54:13.180Z,16.40
2018-09-02T09:56:41.296Z,16.40
2018-09-02T09:59:09.392Z,16.40
2018-09-02T10:01:37.509Z,16.50
2018-09-02T10:04:05.641Z,16.50
2018-09-02T10:06:33.717Z,16.50
2018-09-02T10:09:01.837Z,16.60
2018-09-02T10:11:29.929Z,16.60
2018-09-02T10:14:04.462Z,16.70
2018-09-02T10:16:32.554Z,16.80
2018-09-02T10:19:00.652Z,16.80
2018-09-02T10:21:28.740Z,16.90
2018-09-02T10:23:56.874Z,16.90
2018-09-02T10:26:26.167Z,16.90
2018-09-02T10:28:54.269Z,16.90
2018-09-02T10:31:22.358Z,17.00
2018-09-02T10:33:50.472Z,17.10
2018-09-02T10:36:18.810Z,17.20
2018-09-02T10:38:46.907Z,17.30
2018-09-02T10:41:15.187Z,17.40
2018-09-02T10:43:43.121Z,17.70
2018-09-02T10:46:11.204Z,17.90
2018-09-02T10:48:39.305Z,18.20
2018-09-02T10:51:07.405Z,18.90
2018-09-02T10:53:35.489Z,19.70
2018-09-02T10:56:03.578Z,20.30
2018-09-02T10:58:31.854Z,21.90
2018-09-02T11:01:02.126Z,22.40
2018-09-02T11:03:30.165Z,22.90
2018-09-02T11:05:58.231Z,22.60
2018-09-02T11:08:26.365Z,21.70
2018-09-02T11:10:54.424Z,21.20
2018-09-02T11:13:22.515Z,20.60
2018-09-02T11:15:50.643Z,20.10
2018-09-02T11:18:18.741Z,19.80
2018-09-02T11:20:46.856Z,19.50
2018-09-02T11:23:14.938Z,19.30
2018-09-02T11:25:43.088Z,19.20
2018-09-02T11:28:11.204Z,19.20
2018-09-02T11:30:39.342Z,19.20
2018-09-02T11:33:07.433Z,19.30
2018-09-02T11:35:35.725Z,19.40
2018-09-02T11:38:04.003Z,19.40
2018-09-02T11:40:32.073Z,19.50
2018-09-02T11:43:00.165Z,19.60
2018-09-02T11:45:28.261Z,19.60
2018-09-02T11:47:56.444Z,19.70
2018-09-02T11:50:24.576Z,19.70
2018-09-02T11:52:52.660Z,19.70
2018-09-02T11:55:20.744Z,19.80
2018-09-02T11:57:48.952Z,19.80
2018-09-02T12:00:26.448Z,19.70
2018-09-02T12:02:54.534Z,19.80
2018-09-02T12:05:22.681Z,19.80
2018-09-02T12:07:50.857Z,19.80
2018-09-02T12:10:18.978Z,19.90
2018-09-02T12:12:47.025Z,19.90
2018-09-02T12:15:15.114Z,20.00
2018-09-02T12:17:43.212Z,20.10
2018-09-02T12:20:11.285Z,20.10
2018-09-02T12:22:39.400Z,20.10
2018-09-02T12:25:07.500Z,20.20
2018-09-02T12:27:35.608Z,20.30
2018-09-02T12:30:03.750Z,20.30
2018-09-02T12:32:31.799Z,20.30
2018-09-02T12:34:59.844Z,20.40
2018-09-02T12:37:27.925Z,20.70
2018-09-02T12:39:55.989Z,20.90
2018-09-02T12:42:24.109Z,20.90
2018-09-02T12:44:52.179Z,21.00
2018-09-02T12:47:20.301Z,21.10
2018-09-02T12:49:48.384Z,21.20
2018-09-02T12:52:16.453Z,21.30
2018-09-02T12:54:44.523Z,21.40
2018-09-02T12:57:12.581Z,21.50
2018-09-02T12:59:40.723Z,21.80
2018-09-02T13:02:08.800Z,22.30
2018-09-02T13:04:36.865Z,23.20
2018-09-02T13:07:05.008Z,23.50
2018-09-02T13:09:33.128Z,23.40
2018-09-02T13:12:01.133Z,23.50
2018-09-02T13:14:29.188Z,23.90
2018-09-02T13:16:57.233Z,23.90
2018-09-02T13:19:25.340Z,24.10
2018-09-02T13:21:53.421Z,24.20
2018-09-02T13:24:21.541Z,24.40
2018-09-02T13:26:49.615Z,24.50
2018-09-02T13:29:17.673Z,24.60
2018-09-02T13:31:45.779Z,24.70
2018-09-02T13:34:13.833Z,24.60
2018-09-02T13:36:42.005Z,24.70
2018-09-02T13:39:10.258Z,24.90
2018-09-02T13:41:38.377Z,25.00
2018-09-02T13:44:06.809Z,25.10
2018-09-02T13:46:34.989Z,25.20
2018-09-02T13:49:03.064Z,25.10
2018-09-02T13:51:31.122Z,25.10
2018-09-02T13:53:59.989Z,25.40
2018-09-02T13:56:28.045Z,25.40
2018-09-02T13:58:56.116Z,25.20
2018-09-02T14:01:24.188Z,25.10
2018-09-02T14:03:52.437Z,24.90
2018-09-02T14:06:20.476Z,24.70
2018-09-02T14:08:48.540Z,24.60
2018-09-02T14:11:16.608Z,24.50
2018-09-02T14:13:44.663Z,24.40
2018-09-02T14:16:12.717Z,24.30
2018-09-02T14:18:40.830Z,24.30
2018-09-02T14:21:08.888Z,24.30
2018-09-02T14:23:36.961Z,24.20
2018-09-02T14:26:11.664Z,24.20
2018-09-02T14:28:39.809Z,24.10
2018-09-02T14:31:07.885Z,24.10
2018-09-02T14:33:35.949Z,24.00
2018-09-02T14:36:04.004Z,24.10
2018-09-02T14:38:32.053Z,24.10
2018-09-02T14:41:00.173Z,24.10
2018-09-02T14:43:28.213Z,24.00
2018-09-02T14:45:56.318Z,24.00
2018-09-02T14:48:24.368Z,24.20
2018-09-02T14:50:52.455Z,24.40
2018-09-02T14:53:20.504Z,24.60
2018-09-02T14:55:48.562Z,24.90
2018-09-02T14:58:16.611Z,25.00
2018-09-02T15:00:44.665Z,24.90
2018-09-02T15:03:12.731Z,24.80
2018-09-02T15:05:40.806Z,24.70
2018-09-02T15:08:08.909Z,24.50
2018-09-02T15:10:36.971Z,24.40
2018-09-02T15:13:05.050Z,24.30
2018-09-02T15:15:33.111Z,24.30
2018-09-02T15:18:02.008Z,24.20
2018-09-02T15:20:30.079Z,24.20
2018-09-02T15:22:58.167Z,24.00
2018-09-02T15:25:26.232Z,24.10
2018-09-02T15:27:54.296Z,23.90
2018-09-02T15:30:23.035Z,23.80
2018-09-02T15:32:51.107Z,23.80
2018-09-02T15:35:19.376Z,23.80
2018-09-02T15:37:47.418Z,23.80
2018-09-02T15:40:15.481Z,23.60
2018-09-02T15:42:43.565Z,23.50
2018-09-02T15:45:11.862Z,23.50
2018-09-02T15:47:39.961Z,23.40
2018-09-02T15:50:08.517Z,23.40
2018-09-02T15:52:36.577Z,23.40
2018-09-02T15:55:04.685Z,23.30
2018-09-02T15:57:32.893Z,23.30
2018-09-02T16:00:01.013Z,23.30
2018-09-02T16:02:29.072Z,23.30
2018-09-02T16:04:57.146Z,23.20
2018-09-02T16:07:29.415Z,23.10
2018-09-02T16:09:57.749Z,23.10
2018-09-02T16:12:25.803Z,23.10
2018-09-02T16:14:55.753Z,23.10
2018-09-02T16:17:23.822Z,23.00
2018-09-02T16:19:52.674Z,23.00
2018-09-02T16:22:21.500Z,23.00
2018-09-02T16:24:49.637Z,22.90
2018-09-02T16:27:17.689Z,22.80
2018-09-02T16:29:46.559Z,22.80
2018-09-02T16:32:14.589Z,22.70
2018-09-02T16:34:43.577Z,22.70
2018-09-02T16:37:11.840Z,22.70
2018-09-02T16:39:40.216Z,22.60
2018-09-02T16:42:09.002Z,22.60
2018-09-02T16:44:37.073Z,22.50
2018-09-02T16:47:05.440Z,22.50
2018-09-02T16:49:33.490Z,22.50
2018-09-02T16:52:02.605Z,22.50
2018-09-02T16:54:30.670Z,22.50
2018-09-02T16:56:58.748Z,22.40
2018-09-02T16:59:26.793Z,22.40
2018-09-02T17:01:54.836Z,22.30
2018-09-02T17:04:24.096Z,22.30
2018-09-02T17:06:52.149Z,22.30
2018-09-02T17:09:20.254Z,22.30
2018-09-02T17:11:48.390Z,22.20
2018-09-02T17:14:16.392Z,22.10
2018-09-02T17:16:44.482Z,22.10
2018-09-02T17:19:16.103Z,21.90
2018-09-02T17:21:44.213Z,21.80
2018-09-02T17:24:12.265Z,21.80
2018-09-02T17:26:40.360Z,21.60
2018-09-02T17:29:08.509Z,21.60
2018-09-02T17:31:36.904Z,21.50
2018-09-02T17:34:05.058Z,21.40
2018-09-02T17:36:33.151Z,21.40
2018-09-02T17:39:01.216Z,21.30
2018-09-02T17:41:29.294Z,21.30
2018-09-02T17:43:57.437Z,21.30
2018-09-02T17:46:25.499Z,21.20
2018-09-02T17:48:53.557Z,21.20
2018-09-02T17:51:21.700Z,21.10
2018-09-02T17:53:49.852Z,21.10
2018-09-02T17:56:17.913Z,21.10
2018-09-02T17:58:46.121Z,21.00
2018-09-02T18:01:16.328Z,21.00
2018-09-02T18:03:44.522Z,21.00
2018-09-02T18:06:12.646Z,21.00
2018-09-02T18:08:40.722Z,20.90
2018-09-02T18:11:08.820Z,20.90
2018-09-02T18:13:36.934Z,20.90
2018-09-02T18:16:05.112Z,20.90
2018-09-02T18:18:33.221Z,20.80
2018-09-02T18:21:01.353Z,20.80
2018-09-02T18:23:29.506Z,20.80
2018-09-02T18:25:58.045Z,20.80
2018-09-02T18:28:29.290Z,20.70
2018-09-02T18:30:57.954Z,20.70
2018-09-02T18:33:26.041Z,20.70
2018-09-02T18:35:54.121Z,20.60
2018-09-02T18:38:22.320Z,20.60
2018-09-02T18:40:50.401Z,20.50
2018-09-02T18:43:18.699Z,20.50
2018-09-02T18:45:46.839Z,20.50
2018-09-02T18:48:14.944Z,20.40
2018-09-02T18:50:43.013Z,20.40
2018-09-02T18:53:11.468Z,20.40
2018-09-02T18:55:39.593Z,20.40
2018-09-02T18:58:07.646Z,20.30
2018-09-02T19:00:38.720Z,20.30
2018-09-02T19:03:10.922Z,20.20
2018-09-02T19:05:39.040Z,20.20
2018-09-02T19:08:07.141Z,20.20
2018-09-02T19:10:35.438Z,20.10
2018-09-02T19:13:03.529Z,20.10
2018-09-02T19:15:31.669Z,20.10
2018-09-02T19:17:59.789Z,20.10
2018-09-02T19:20:27.857Z,20.00
2018-09-02T19:22:57.172Z,19.90
2018-09-02T19:25:34.560Z,19.90
2018-09-02T19:28:02.782Z,19.90
2018-09-02T19:30:30.884Z,19.80
2018-09-02T19:32:58.973Z,19.80
2018-09-02T19:35:27.109Z,19.70
2018-09-02T19:37:55.478Z,19.70
2018-09-02T19:40:23.997Z,19.60
2018-09-02T19:42:52.513Z,19.60
2018-09-02T19:45:20.899Z,19.60
2018-09-02T19:47:48.944Z,19.60
2018-09-02T19:50:17.019Z,19.50
2018-09-02T19:52:45.536Z,19.50
2018-09-02T19:55:13.702Z,19.50
2018-09-02T19:57:41.807Z,19.40
2018-09-02T20:00:11.575Z,19.40
2018-09-02T20:02:40.745Z,19.40
2018-09-02T20:05:09.102Z,19.30
2018-09-02T20:07:37.201Z,19.20
2018-09-02T20:10:05.798Z,19.20
2018-09-02T20:12:34.014Z,19.20
2018-09-02T20:15:02.594Z,19.20
2018-09-02T20:17:30.784Z,19.10
2018-09-02T20:19:58.932Z,19.10
2018-09-02T20:22:27.121Z,19.00
2018-09-02T20:24:55.196Z,19.00
2018-09-02T20:27:23.281Z,19.00
2018-09-02T20:29:51.339Z,19.00
2018-09-02T20:32:19.385Z,19.00
2018-09-02T20:34:47.476Z,19.00
2018-09-02T20:37:15.575Z,19.00
2018-09-02T20:39:43.681Z,19.00
2018-09-02T20:42:11.765Z,19.00
2018-09-02T20:44:39.844Z,18.90
2018-09-02T20:47:07.929Z,19.00
2018-09-02T20:49:35.988Z,19.00
2018-09-02T20:52:04.120Z,19.00
2018-09-02T20:54:32.241Z,19.00
2018-09-02T20:57:00.280Z,19.10
2018-09-02T20:59:28.349Z,19.10
2018-09-02T21:01:56.437Z,19.20
2018-09-02T21:04:24.604Z,19.20
2018-09-02T21:06:52.655Z,19.20
2018-09-02T21:09:20.716Z,19.20
2018-09-02T21:11:48.810Z,19.20
2018-09-02T21:14:16.862Z,19.30
2018-09-02T21:16:44.926Z,19.30
2018-09-02T21:19:12.992Z,19.30
2018-09-02T21:21:41.042Z,19.30
2018-09-02T21:24:09.143Z,19.20
2018-09-02T21:26:37.211Z,19.20
2018-09-02T21:29:05.272Z,19.20
2018-09-02T21:31:33.540Z,19.20
2018-09-02T21:34:01.618Z,19.20
2018-09-02T21:36:29.733Z,19.20
2018-09-02T21:38:57.822Z,19.20
2018-09-02T21:41:25.897Z,19.20
2018-09-02T21:43:53.933Z,19.10
2018-09-02T21:46:22.002Z,19.10
2018-09-02T21:48:50.081Z,19.10
2018-09-02T21:51:18.124Z,19.10
2018-09-02T21:53:46.225Z,19.10
2018-09-02T21:56:14.288Z,19.00
2018-09-02T21:58:42.392Z,19.00
2018-09-02T22:01:10.478Z,19.00
2018-09-02T22:03:38.536Z,19.00
2018-09-02T22:06:06.600Z,19.00
2018-09-02T22:08:35.124Z,18.90
2018-09-02T22:11:03.233Z,18.90
2018-09-02T22:13:31.391Z,18.90
2018-09-02T22:15:59.476Z,18.90
2018-09-02T22:18:27.595Z,18.90
2018-09-02T22:20:55.653Z,18.90
2018-09-02T22:23:23.713Z,18.90
2018-09-02T22:25:51.820Z,18.90
2018-09-02T22:28:19.959Z,18.90
2018-09-02T22:30:48.012Z,18.90
2018-09-02T22:33:16.117Z,18.80
2018-09-02T22:35:44.232Z,18.80
2018-09-02T22:38:13.026Z,18.80
2018-09-02T22:40:41.149Z,18.80
2018-09-02T22:43:09.281Z,18.70
2018-09-02T22:45:37.345Z,18.70
2018-09-02T22:48:05.482Z,18.70
2018-09-02T22:50:33.592Z,18.70
2018-09-02T22:53:01.637Z,18.70
2018-09-02T22:55:29.733Z,18.60
2018-09-02T22:57:57.955Z,18.60
2018-09-02T23:00:25.920Z,18.60
2018-09-02T23:02:53.990Z,18.60
2018-09-02T23:05:22.048Z,18.50
2018-09-02T23:07:50.929Z,18.50
2018-09-02T23:10:18.997Z,18.50
2018-09-02T23:12:47.065Z,18.50
2018-09-02T23:15:15.120Z,18.50
2018-09-02T23:17:43.183Z,18.50
2018-09-02T23:20:11.242Z,18.50
2018-09-02T23:22:39.328Z,18.50
2018-09-02T23:25:15.287Z,18.50
2018-09-02T23:27:43.360Z,18.40
2018-09-02T23:30:11.416Z,18.40
2018-09-02T23:32:39.459Z,18.40
2018-09-02T23:35:07.496Z,18.40
2018-09-02T23:37:35.544Z,18.40
2018-09-02T23:40:03.631Z,18.30
2018-09-02T23:42:31.889Z,18.30
2018-09-02T23:44:59.940Z,18.30
2018-09-02T23:47:28.028Z,18.30
2018-09-02T23:49:57.127Z,18.20
2018-09-02T23:52:25.164Z,18.20
2018-09-02T23:54:53.276Z,18.20
2018-09-02T23:57:21.322Z,18.10
2018-09-02T23:59:49.448Z,18.10
